Time;durP1;ratioP1;P1;durP2;ratioP2;P2;SDS_P1;SDS_P2;PMS_P1;PMS_P2;Temp;Humidity;BMP_temperature;BMP_pressure;BME280_temperature;BME280_humidity;BME280_pressure;Samples;Min_cycle;Max_cycle;Signal;HPM_P1;HPM_P2
2023/03/08 00:00:14;;;;;;;69.90;3.77;;;;;;;21.66;56.23;97697.56;7307799;19;129318;-42
2023/03/08 00:02:39;;;;;;;57.58;3.15;;;;;;;21.65;56.19;97695.91;7308241;19;129453;-39
2023/03/08 00:05:05;;;;;;;103.77;6.00;;;;;;;21.55;55.54;97694.63;7309266;19;129427;-44
2023/03/08 00:07:32;;;;;;;40.23;2.47;;;;;;;21.58;55.80;97697.69;7309540;19;129617;-43
2023/03/08 00:09:57;;;;;;;49.58;2.75;;;;;;;21.59;55.87;97701.09;7306195;19;129253;-41
2023/03/08 00:12:23;;;;;;;51.53;3.23;;;;;;;21.47;55.94;97692.13;7307237;19;129306;-40
2023/03/08 00:14:49;;;;;;;55.35;2.97;;;;;;;21.56;55.70;97717.97;7308798;19;130414;-40
2023/03/08 00:17:14;;;;;;;84.13;4.77;;;;;;;21.54;56.28;97719.94;7302167;19;128856;-43
2023/03/08 00:19:40;;;;;;;68.63;3.55;;;;;;;21.54;56.39;97725.19;7305008;19;129604;-42
2023/03/08 00:22:05;;;;;;;174.85;9.68;;;;;;;21.52;56.22;97721.94;7304843;19;128932;-38
2023/03/08 00:24:30;;;;;;;49.03;2.83;;;;;;;21.51;56.24;97725.56;7305418;19;130382;-42
2023/03/08 00:26:56;;;;;;;65.57;3.77;;;;;;;21.49;56.01;97727.53;7305970;19;129731;-43
2023/03/08 00:29:22;;;;;;;153.18;8.15;;;;;;;21.50;56.39;97723.91;7304986;19;129781;-43
2023/03/08 00:31:47;;;;;;;52.40;2.92;;;;;;;21.47;56.03;97734.75;7306942;19;129118;-43
2023/03/08 00:34:13;;;;;;;64.32;3.65;;;;;;;21.48;56.40;97730.34;7307402;19;129417;-42
2023/03/08 00:36:38;;;;;;;64.25;3.40;;;;;;;21.36;56.58;97714.31;7304705;19;129519;-42
2023/03/08 00:39:04;;;;;;;44.30;2.50;;;;;;;21.38;56.39;97725.41;7303085;19;129162;-42
2023/03/08 00:41:29;;;;;;;78.87;4.43;;;;;;;21.42;56.44;97731.88;7303113;19;129558;-39
2023/03/08 00:43:55;;;;;;;54.97;2.97;;;;;;;21.34;55.91;97728.53;7309908;19;130342;-42
2023/03/08 00:46:20;;;;;;;58.67;3.38;;;;;;;21.41;56.78;97740.72;7314089;19;129282;-41
2023/03/08 00:48:45;;;;;;;54.50;3.15;;;;;;;21.29;56.69;97726.50;7314879;19;129375;-41
2023/03/08 00:51:13;;;;;;;47.20;2.70;;;;;;;21.39;56.91;97747.94;7313863;19;128952;-43
2023/03/08 00:53:39;;;;;;;52.70;2.92;;;;;;;21.39;56.81;97752.34;7314461;19;128852;-42
2023/03/08 00:56:04;;;;;;;43.28;2.50;;;;;;;21.37;56.80;97757.75;7312529;19;129547;-40
2023/03/08 00:58:30;;;;;;;76.28;4.13;;;;;;;21.36;56.20;97753.53;7315670;19;130571;-43
2023/03/08 01:00:56;;;;;;;68.47;3.73;;;;;;;21.36;56.86;97757.94;7312166;19;129484;-39
2023/03/08 01:03:22;;;;;;;92.50;5.13;;;;;;;21.34;56.22;97757.31;7303084;19;129628;-44
2023/03/08 01:05:49;;;;;;;;;;;;;;;21.31;57.07;97750.66;7308421;19;130963;-43
2023/03/08 01:08:16;;;;;;;95.95;5.30;;;;;;;21.33;56.71;97747.84;7305378;19;129690;-41
2023/03/08 01:10:52;;;;;;;111.78;6.50;;;;;;;21.33;57.05;97750.47;7304602;19;128979;-40
2023/03/08 01:13:18;;;;;;;61.15;3.45;;;;;;;21.33;56.71;97747.84;7310266;19;129036;-39
2023/03/08 01:15:44;;;;;;;84.30;4.70;;;;;;;21.31;56.93;97757.66;7302627;19;130273;-41
2023/03/08 01:18:09;;;;;;;79.55;3.95;;;;;;;21.31;57.31;97761.09;7311968;19;129232;-41
2023/03/08 01:20:35;;;;;;;41.93;2.43;;;;;;;21.29;56.81;97742.16;7311345;19;128832;-43
2023/03/08 01:23:00;;;;;;;54.42;3.25;;;;;;;21.29;56.95;97751.81;7306347;19;129508;-42
2023/03/08 01:25:26;;;;;;;43.27;2.50;;;;;;;21.27;57.00;97753.81;7311052;19;130010;-41
2023/03/08 01:27:52;;;;;;;93.85;5.00;;;;;;;21.26;56.95;97755.59;7306350;19;130206;-41
2023/03/08 01:30:17;;;;;;;54.00;3.05;;;;;;;21.24;57.17;97754.97;7310310;19;129432;-42
2023/03/08 01:32:42;;;;;;;47.13;2.70;;;;;;;21.26;57.36;97747.78;7308316;19;129300;-42
2023/03/08 01:35:09;;;;;;;127.63;7.70;;;;;;;21.15;57.45;97732.56;7307671;19;129646;-38
2023/03/08 01:37:34;;;;;;;63.70;3.40;;;;;;;21.24;56.77;97748.94;7309170;19;130064;-41
2023/03/08 01:39:59;;;;;;;78.10;4.43;;;;;;;21.25;57.61;97750.56;7304328;19;130300;-41
2023/03/08 01:42:26;;;;;;;89.30;4.85;;;;;;;21.25;56.92;97755.78;7310082;19;131003;-41
2023/03/08 01:44:55;;;;;;;79.70;4.38;;;;;;;21.24;57.18;97749.75;7306074;19;130292;-39
2023/03/08 01:47:31;;;;;;;74.43;4.00;;;;;;;21.21;57.31;97744.88;7307786;19;129477;-39
2023/03/08 01:50:05;;;;;;;50.93;2.73;;;;;;;21.20;57.29;97739.84;7312166;19;129202;-43
2023/03/08 01:52:35;;;;;;;67.25;4.00;;;;;;;21.20;57.09;97747.69;7305216;19;130292;-43
2023/03/08 01:55:03;;;;;;;86.78;4.88;;;;;;;21.22;58.23;97741.28;7304840;19;129600;-45
2023/03/08 01:57:33;;;;;;;52.85;2.80;;;;;;;21.20;57.64;97743.28;7306525;19;132071;-41
2023/03/08 02:00:16;;;;;;;79.22;4.30;;;;;;;21.19;57.73;97741.63;7302522;19;129117;-42
2023/03/08 02:03:10;;;;;;;83.20;4.38;;;;;;;21.20;58.06;97743.28;7312721;19;129602;-39
2023/03/08 02:05:38;;;;;;;69.68;3.65;;;;;;;21.21;58.01;97747.50;7306206;19;130200;-39
2023/03/08 02:08:04;;;;;;;59.10;3.25;;;;;;;21.19;56.85;97741.63;7308858;19;129469;-44
2023/03/08 02:10:30;;;;;;;54.63;2.97;;;;;;;21.18;58.31;97750.47;7306058;19;129551;-41
2023/03/08 02:12:55;;;;;;;82.90;4.40;;;;;;;21.11;58.87;97738.31;7308930;19;129967;-43
2023/03/08 02:15:21;;;;;;;67.43;3.73;;;;;;;21.22;57.68;97758.78;7308682;19;129217;-40
2023/03/08 02:17:47;;;;;;;68.07;3.97;;;;;;;21.20;57.50;97745.91;7308247;19;129697;-44
2023/03/08 02:20:34;;;;;;;45.72;2.58;;;;;;;21.23;58.59;97748.13;7310342;19;129569;-42
2023/03/08 02:23:11;;;;;;;62.00;3.30;;;;;;;21.27;57.24;97743.38;7306013;19;129676;-42
2023/03/08 02:25:37;;;;;;;60.47;3.30;;;;;;;21.33;56.58;97748.66;7306616;19;130151;-42
2023/03/08 02:28:03;;;;;;;113.17;5.73;;;;;;;21.37;56.42;97749.13;7306853;19;129940;-44
2023/03/08 02:30:35;;;;;;;87.13;4.63;;;;;;;21.43;56.79;97751.00;7302879;19;129109;-41
2023/03/08 02:33:00;;;;;;;49.25;2.83;;;;;;;21.58;55.83;97757.81;7311861;19;129304;-42
2023/03/08 02:35:26;;;;;;;43.40;2.30;;;;;;;21.51;55.34;97738.63;7310575;19;129436;-43
2023/03/08 02:37:51;;;;;;;62.63;3.25;;;;;;;21.65;55.70;97757.91;7308717;19;130404;-43
2023/03/08 02:40:17;;;;;;;64.15;3.38;;;;;;;21.64;55.50;97751.84;7309346;19;130547;-43
2023/03/08 02:42:42;;;;;;;68.13;3.85;;;;;;;21.62;55.39;97753.81;7309043;19;129591;-39
2023/03/08 02:45:08;;;;;;;125.80;7.35;;;;;;;21.63;55.75;97747.63;7311259;19;129525;-39
2023/03/08 02:47:34;;;;;;;65.70;3.30;;;;;;;21.60;55.85;97745.34;7313004;19;129250;-43
2023/03/08 02:49:59;;;;;;;42.85;2.45;;;;;;;21.58;55.59;97751.78;7312632;19;129085;-40
2023/03/08 02:52:24;;;;;;;22.30;1.33;;;;;;;21.54;55.70;97746.09;7312319;19;128927;-42
2023/03/08 02:54:50;;;;;;;55.13;2.97;;;;;;;21.47;55.55;97760.88;7311565;19;129457;-43
2023/03/08 02:57:15;;;;;;;70.30;3.70;;;;;;;21.44;55.98;97760.44;7309752;19;129643;-43
2023/03/08 02:59:40;;;;;;;48.30;2.80;;;;;;;21.38;56.14;97762.00;7311798;19;129223;-43
2023/03/08 03:02:06;;;;;;;40.03;2.20;;;;;;;21.33;56.08;97764.34;7311962;19;129068;-41
2023/03/08 03:04:32;;;;;;;43.80;2.42;;;;;;;21.33;56.71;97759.13;7312650;19;129473;-43
2023/03/08 03:06:58;;;;;;;60.22;3.15;;;;;;;21.28;56.75;97751.03;7309700;19;129431;-38
2023/03/08 03:09:24;;;;;;;78.97;4.23;;;;;;;21.28;56.36;97751.03;7311109;19;128907;-44
2023/03/08 03:11:49;;;;;;;46.22;2.75;;;;;;;21.23;56.87;97761.22;7310829;19;129012;-42
2023/03/08 03:14:15;;;;;;;143.07;7.80;;;;;;;21.24;57.36;97757.59;7303456;19;130193;-43
2023/03/08 03:16:40;;;;;;;91.80;5.35;;;;;;;21.20;57.45;97756.34;7300338;19;131189;-38
2023/03/08 03:19:06;;;;;;;86.18;4.68;;;;;;;21.19;57.77;97767.78;7310202;19;129029;-44
2023/03/08 03:21:31;;;;;;;73.80;3.90;;;;;;;21.21;57.15;97771.03;7302030;19;130401;-43
2023/03/08 03:23:56;;;;;;;74.28;3.95;;;;;;;21.20;57.50;97773.81;7308151;19;130208;-39
2023/03/08 03:26:23;;;;;;;80.60;4.40;;;;;;;21.16;58.12;97778.59;7300369;19;130934;-40
2023/03/08 03:28:51;;;;;;;93.00;4.97;;;;;;;21.19;57.51;97775.63;7305623;19;128960;-41
2023/03/08 03:31:19;;;;;;;121.82;6.95;;;;;;;21.19;57.52;97773.00;7295662;19;129973;-39
2023/03/08 03:33:46;;;;;;;48.35;2.63;;;;;;;21.15;58.20;97774.38;7307683;19;129719;-40
2023/03/08 03:36:14;;;;;;;85.38;4.40;;;;;;;21.16;57.55;97775.16;7298091;19;129589;-41
2023/03/08 03:38:39;;;;;;;52.05;3.28;;;;;;;21.14;58.09;97769.31;7300046;19;131525;-39
2023/03/08 03:41:07;;;;;;;60.65;3.38;;;;;;;21.13;56.95;97778.13;7301145;19;129668;-43
2023/03/08 03:43:32;;;;;;;47.55;2.70;;;;;;;21.02;57.76;97758.53;7302731;19;129967;-43
2023/03/08 03:46:00;;;;;;;93.70;5.03;;;;;;;21.10;56.97;97774.09;7301255;19;129332;-42
2023/03/08 03:48:26;;;;;;;48.83;2.75;;;;;;;21.07;56.90;97779.69;7309336;19;129540;-42
2023/03/08 03:51:19;;;;;;;78.10;4.28;;;;;;;21.08;57.62;97783.09;7304399;19;130823;-42
2023/03/08 03:53:45;;;;;;;57.83;3.15;;;;;;;20.92;57.57;97770.19;7306271;19;131185;-44
2023/03/08 03:56:19;;;;;;;119.25;6.57;;;;;;;21.01;57.33;97793.44;7300850;19;129180;-40
2023/03/08 03:58:45;;;;;;;94.07;4.90;;;;;;;20.99;57.42;97800.66;7304288;19;129240;-44
2023/03/08 04:01:14;;;;;;;68.65;3.83;;;;;;;20.97;57.89;97786.97;7302807;19;129508;-42
2023/03/08 04:03:39;;;;;;;51.10;2.78;;;;;;;20.97;57.83;97786.97;7307906;19;129541;-39
2023/03/08 04:06:13;;;;;;;40.15;2.13;;;;;;;20.87;57.89;97773.34;7304412;19;130774;-42
2023/03/08 04:08:40;;;;;;;73.80;3.90;;;;;;;21.01;58.27;97788.22;7301244;19;129807;-39
2023/03/08 04:11:10;;;;;;;73.95;3.92;;;;;;;21.01;57.97;97792.63;7303922;19;129255;-42
2023/03/08 04:13:36;;;;;;;49.63;2.55;;;;;;;21.08;57.83;97794.38;7308104;19;129584;-43
2023/03/08 04:16:12;;;;;;;66.80;3.83;;;;;;;21.09;58.22;97800.41;7304109;19;129896;-40
2023/03/08 04:18:38;;;;;;;26.17;1.40;;;;;;;21.12;57.49;97800.84;7308361;19;130605;-44
2023/03/08 04:21:04;;;;;;;162.68;8.73;;;;;;;21.19;57.40;97793.91;7307604;19;129442;-43
2023/03/08 04:23:29;;;;;;;46.47;2.50;;;;;;;21.26;57.13;97789.59;7313851;19;130258;-38
2023/03/08 04:25:54;;;;;;;47.30;2.53;;;;;;;21.36;56.80;97802.38;7313333;19;130361;-41
2023/03/08 04:28:20;;;;;;;68.38;3.65;;;;;;;21.48;56.02;97796.53;7311215;19;129014;-40
2023/03/08 04:30:45;;;;;;;142.60;7.50;;;;;;;21.62;55.46;97794.84;7300192;19;129411;-40
2023/03/08 04:33:10;;;;;;;65.75;3.50;;;;;;;21.61;55.60;97794.06;7311012;19;129240;-43
2023/03/08 04:35:36;;;;;;;57.63;3.00;;;;;;;21.70;55.76;97800.78;7312818;19;131809;-40
2023/03/08 04:38:01;;;;;;;57.53;3.03;;;;;;;21.79;55.00;97796.28;7312139;19;129754;-42
2023/03/08 04:40:27;;;;;;;53.57;2.63;;;;;;;22.04;55.14;97786.28;7311969;19;129718;-43
2023/03/08 04:42:52;;;;;;;53.27;2.83;;;;;;;22.34;54.02;97777.31;7312419;19;129570;-39
2023/03/08 04:45:18;;;;;;;78.63;4.07;;;;;;;22.77;52.64;97782.34;7312152;19;129774;-40
2023/03/08 04:47:43;;;;;;;47.20;2.67;;;;;;;22.98;51.64;97773.59;7315485;19;128966;-40
2023/03/08 04:50:09;;;;;;;57.58;3.03;;;;;;;23.38;50.93;97780.72;7311804;19;128943;-43
2023/03/08 04:52:34;;;;;;;41.87;2.23;;;;;;;23.64;49.79;97785.25;7315175;19;129312;-38
2023/03/08 04:55:00;;;;;;;127.50;7.38;;;;;;;23.74;49.31;97786.50;7312895;19;129806;-41
2023/03/08 04:57:25;;;;;;;91.18;4.65;;;;;;;23.95;48.93;97775.84;7311453;19;128953;-42
2023/03/08 04:59:50;;;;;;;83.30;4.20;;;;;;;24.09;48.71;97789.84;7310237;19;129394;-42
2023/03/08 05:02:16;;;;;;;72.17;3.70;;;;;;;24.11;48.45;97788.63;7313506;19;128968;-39
2023/03/08 05:04:41;;;;;;;43.88;2.38;;;;;;;24.21;48.48;97778.56;7311857;19;130180;-41
2023/03/08 05:07:07;;;;;;;47.27;2.30;;;;;;;24.28;48.42;97774.13;7313623;19;129044;-43
2023/03/08 05:09:32;;;;;;;51.53;2.72;;;;;;;24.23;48.69;97776.53;7314853;19;128970;-42
2023/03/08 05:11:58;;;;;;;41.97;2.17;;;;;;;24.37;48.40;97786.06;7311661;19;130635;-36
2023/03/08 05:14:23;;;;;;;56.57;3.10;;;;;;;24.52;48.34;97790.31;7309394;19;129473;-43
2023/03/08 05:16:49;;;;;;;62.70;3.17;;;;;;;24.41;47.77;97789.88;7309687;19;128888;-37
2023/03/08 05:19:14;;;;;;;70.80;3.73;;;;;;;24.36;47.85;97792.31;7312020;19;129006;-44
2023/03/08 05:21:39;;;;;;;143.83;7.87;;;;;;;24.38;47.71;97785.03;7296496;19;129232;-39
2023/03/08 05:24:05;;;;;;;133.77;7.32;;;;;;;24.25;47.98;97785.03;7291643;19;130311;-43
2023/03/08 05:26:31;;;;;;;141.53;7.60;;;;;;;24.15;48.49;97779.38;7292693;19;130224;-37
2023/03/08 05:28:56;;;;;;;161.20;8.95;;;;;;;24.03;48.48;97786.19;7293706;19;130857;-41
2023/03/08 05:31:21;;;;;;;155.63;8.40;;;;;;;23.88;49.43;97785.53;7286551;19;130502;-39
2023/03/08 05:33:49;;;;;;;149.65;8.13;;;;;;;23.83;49.42;97774.81;7290891;19;130799;-43
2023/03/08 05:36:16;;;;;;;80.28;4.22;;;;;;;23.76;50.03;97781.88;7294453;19;129455;-40
2023/03/08 05:38:42;;;;;;;;;;;;;;;23.72;50.03;97788.50;7315395;19;131498;-43
2023/03/08 05:41:11;;;;;;;57.78;2.95;;;;;;;23.65;49.84;97792.13;7310826;19;129326;-42
2023/03/08 05:43:37;;;;;;;89.22;4.78;;;;;;;23.70;49.81;97795.75;7304740;19;130396;-40
2023/03/08 05:46:05;;;;;;;101.47;5.20;;;;;;;23.68;50.26;97800.41;7308406;19;130171;-40
2023/03/08 05:48:33;;;;;;;42.33;2.22;;;;;;;23.67;49.96;97806.66;7312510;19;129021;-41
2023/03/08 05:50:58;;;;;;;70.28;3.60;;;;;;;23.72;50.18;97808.69;7311388;19;130066;-40
2023/03/08 05:53:24;;;;;;;53.43;2.97;;;;;;;23.64;50.25;97807.06;7312789;19;129063;-39
2023/03/08 05:55:50;;;;;;;99.07;5.13;;;;;;;23.61;49.98;97791.72;7308152;19;129305;-41
2023/03/08 05:58:15;;;;;;;76.67;4.17;;;;;;;23.65;50.08;97800.00;7310068;19;129156;-43
2023/03/08 06:00:41;;;;;;;52.13;2.87;;;;;;;23.72;49.94;97799.00;7309885;19;129544;-43
2023/03/08 06:03:06;;;;;;;62.17;3.17;;;;;;;23.68;49.96;97796.97;7311944;19;129596;-42
2023/03/08 06:05:32;;;;;;;84.73;4.13;;;;;;;23.76;50.13;97800.25;7312005;19;129561;-40
2023/03/08 06:07:58;;;;;;;76.82;4.22;;;;;;;23.78;49.48;97806.13;7306700;19;129718;-42
2023/03/08 06:10:23;;;;;;;61.67;3.35;;;;;;;23.78;49.30;97814.00;7311391;19;129903;-42
2023/03/08 06:12:49;;;;;;;52.63;2.85;;;;;;;23.78;49.32;97811.38;7312944;19;130551;-42
2023/03/08 06:15:14;;;;;;;80.30;4.25;;;;;;;23.77;49.33;97806.28;7311526;19;129367;-38
2023/03/08 06:17:40;;;;;;;81.65;4.53;;;;;;;23.83;49.98;97808.94;7305041;19;128992;-42
2023/03/08 06:20:07;;;;;;;46.00;2.40;;;;;;;23.87;49.74;97817.22;7311097;19;129516;-43
2023/03/08 06:22:32;;;;;;;;;;;;;;;23.82;49.98;97812.56;7311412;19;130590;-41
2023/03/08 06:24:58;;;;;;;49.47;2.70;;;;;;;23.82;49.31;97820.44;7310300;19;129013;-43
2023/03/08 06:27:23;;;;;;;74.93;4.13;;;;;;;23.94;49.18;97816.25;7309074;19;129872;-42
2023/03/08 06:29:49;;;;;;;39.10;2.10;;;;;;;24.03;49.33;97820.31;7309652;19;129297;-43
2023/03/08 06:32:15;;;;;;;64.45;3.42;;;;;;;23.90;49.44;97807.13;7312591;19;130070;-41
2023/03/08 06:34:41;;;;;;;56.30;2.77;;;;;;;24.03;49.26;97822.94;7313775;19;129151;-38
2023/03/08 06:37:06;;;;;;;29.03;1.43;;;;;;;23.98;48.77;97809.63;7308757;19;129938;-42
2023/03/08 06:39:33;;;;;;;28.10;1.43;;;;;;;24.06;48.83;97816.50;7312741;19;129144;-41
2023/03/08 06:42:00;;;;;;;54.38;2.75;;;;;;;24.10;49.05;97808.03;7310555;19;131283;-43
2023/03/08 06:44:25;;;;;;;46.97;2.53;;;;;;;24.06;49.08;97803.38;7312935;19;129459;-43
2023/03/08 06:46:50;;;;;;;24.47;1.37;;;;;;;24.01;49.43;97798.75;7310940;19;129020;-43
2023/03/08 06:49:16;;;;;;;46.13;2.37;;;;;;;23.90;49.16;97787.97;7312543;19;129028;-41
2023/03/08 06:51:41;;;;;;;49.73;2.50;;;;;;;23.86;49.49;97787.56;7309881;19;129603;-43
2023/03/08 06:54:06;;;;;;;31.10;1.73;;;;;;;23.83;49.94;97785.31;7314287;19;129316;-43
2023/03/08 06:56:32;;;;;;;42.80;2.47;;;;;;;23.70;50.09;97784.47;7310544;19;129319;-40
2023/03/08 06:58:57;;;;;;;45.93;2.23;;;;;;;23.70;49.68;97794.97;7311456;19;130912;-39
2023/03/08 07:01:22;;;;;;;81.50;4.10;;;;;;;23.61;49.95;97806.63;7309220;19;129715;-41
2023/03/08 07:03:49;;;;;;;48.23;2.53;;;;;;;23.66;50.10;97805.06;7313150;19;129110;-38
2023/03/08 07:06:14;;;;;;;28.83;1.55;;;;;;;23.69;50.30;97799.41;7310013;19;128946;-42
2023/03/08 07:08:40;;;;;;;42.07;2.13;;;;;;;23.70;50.11;97795.75;7311361;19;129214;-45
2023/03/08 07:11:08;;;;;;;50.23;2.47;;;;;;;23.66;50.54;97807.69;7310537;19;129859;-42
2023/03/08 07:13:34;;;;;;;31.45;1.70;;;;;;;23.71;49.81;97807.91;7312505;19;129118;-39
2023/03/08 07:16:07;;;;;;;33.43;1.77;;;;;;;23.68;50.42;97805.66;7311060;19;129491;-44
2023/03/08 07:18:33;;;;;;;40.60;2.08;;;;;;;23.75;50.25;97806.47;7308672;19;131094;-40
2023/03/08 07:20:58;;;;;;;45.83;2.27;;;;;;;23.79;50.23;97812.97;7309599;19;130351;-43
2023/03/08 07:23:23;;;;;;;41.40;2.27;;;;;;;23.80;49.90;97811.16;7311468;19;129261;-42
2023/03/08 07:25:49;;;;;;;45.37;2.40;;;;;;;23.78;49.34;97797.41;7309029;19;129073;-43
2023/03/08 07:28:14;;;;;;;67.13;3.47;;;;;;;23.82;49.50;97809.13;7311271;19;129461;-42
2023/03/08 07:30:44;;;;;;;54.23;2.90;;;;;;;23.91;49.68;97808.78;7310480;19;129697;-43
2023/03/08 07:33:10;;;;;;;56.25;2.92;;;;;;;23.91;49.32;97814.03;7311022;19;129960;-39
2023/03/08 07:35:36;;;;;;;54.00;3.13;;;;;;;24.02;49.77;97813.47;7308539;19;129428;-41
2023/03/08 07:38:01;;;;;;;51.53;2.55;;;;;;;24.01;49.01;97814.50;7308299;19;129171;-40
2023/03/08 07:40:26;;;;;;;42.78;2.20;;;;;;;23.93;49.85;97811.19;7309657;19;129151;-43
2023/03/08 07:42:52;;;;;;;36.73;2.00;;;;;;;24.04;49.33;97813.28;7310498;19;129484;-40
2023/03/08 07:45:17;;;;;;;39.50;1.93;;;;;;;24.04;49.68;97816.72;7310427;19;129237;-43
2023/03/08 07:47:43;;;;;;;62.40;3.13;;;;;;;24.11;49.22;97814.88;7310094;19;129363;-39
2023/03/08 07:50:09;;;;;;;35.25;1.77;;;;;;;24.15;48.76;97810.88;7310462;19;129428;-38
2023/03/08 07:52:34;;;;;;;42.87;2.37;;;;;;;24.06;49.44;97801.59;7309588;19;128850;-40
2023/03/08 07:55:01;;;;;;;69.17;3.83;;;;;;;24.14;48.76;97801.41;7309924;19;129313;-42
2023/03/08 07:57:27;;;;;;;52.38;2.55;;;;;;;24.08;49.46;97809.25;7309415;19;129869;-42
2023/03/08 07:59:52;;;;;;;13.87;0.93;;;;;;;23.93;49.37;97812.00;7310254;19;129568;-42
2023/03/08 08:02:17;;;;;;;48.63;2.50;;;;;;;23.91;49.41;97815.84;7310494;19;129505;-40
2023/03/08 08:04:43;;;;;;;51.47;2.83;;;;;;;23.83;49.37;97811.56;7310224;19;129178;-40
2023/03/08 08:07:13;;;;;;;74.87;3.60;;;;;;;23.68;49.64;97808.28;7309000;19;129101;-42
2023/03/08 08:09:39;;;;;;;38.50;1.90;;;;;;;23.64;50.28;97812.31;7309346;19;129356;-42
2023/03/08 08:12:05;;;;;;;18.77;1.00;;;;;;;23.67;50.46;97811.91;7309783;19;129517;-36
2023/03/08 08:14:30;;;;;;;37.27;2.07;;;;;;;23.70;49.99;97801.00;7309526;19;129227;-42
2023/03/08 08:16:56;;;;;;;53.30;2.55;;;;;;;23.69;50.03;97804.66;7308530;19;130148;-40
2023/03/08 08:19:21;;;;;;;43.63;2.33;;;;;;;23.71;50.15;97801.84;7309890;19;129587;-38
2023/03/08 08:21:47;;;;;;;40.47;2.17;;;;;;;23.77;50.48;97793.16;7308862;19;129640;-44
2023/03/08 08:24:12;;;;;;;43.97;2.37;;;;;;;23.75;50.25;97798.59;7309807;19;129282;-38
2023/03/08 08:26:38;;;;;;;52.30;2.55;;;;;;;23.81;50.05;97792.59;7308282;19;129335;-39
2023/03/08 08:29:03;;;;;;;20.93;1.17;;;;;;;23.86;50.45;97784.13;7309783;19;130415;-40
2023/03/08 08:31:32;;;;;;;33.17;1.77;;;;;;;23.88;49.85;97782.91;7306045;19;129123;-42
2023/03/08 08:33:58;;;;;;;44.90;2.33;;;;;;;23.84;49.77;97776.44;7308672;19;129167;-40
2023/03/08 08:36:24;;;;;;;80.47;4.10;;;;;;;23.80;50.39;97771.78;7306427;19;130036;-38
2023/03/08 08:38:50;;;;;;;40.67;2.17;;;;;;;23.99;49.99;97790.25;7305894;19;130078;-43
2023/03/08 08:41:17;;;;;;;54.73;2.87;;;;;;;23.97;49.76;97788.78;7302950;19;130847;-42
2023/03/08 08:43:44;;;;;;;42.63;2.15;;;;;;;23.96;50.05;97787.19;7309301;19;129112;-43
2023/03/08 08:46:10;;;;;;;45.20;2.25;;;;;;;24.04;49.86;97782.59;7307388;19;129098;-44
2023/03/08 08:48:37;;;;;;;29.77;1.53;;;;;;;24.06;49.70;97785.00;7309330;19;129623;-37
2023/03/08 08:51:02;;;;;;;;;;;;;;;24.03;49.80;97780.16;7307448;19;129565;-39
2023/03/08 08:53:28;;;;;;;28.23;1.42;;;;;;;24.00;49.17;97756.91;7309258;19;129132;-42
2023/03/08 08:55:53;;;;;;;62.83;3.22;;;;;;;24.14;49.03;97774.31;7308135;19;129369;-36
2023/03/08 08:58:19;;;;;;;37.27;1.87;;;;;;;23.98;49.56;97751.84;7306658;19;129363;-42
2023/03/08 09:00:45;;;;;;;47.80;2.67;;;;;;;24.16;49.28;97759.97;7305873;19;129096;-42
2023/03/08 09:03:11;;;;;;;52.67;2.67;;;;;;;24.07;49.44;97761.19;7309229;19;129189;-39
2023/03/08 09:05:41;;;;;;;42.10;2.33;;;;;;;23.83;49.97;97743.31;7314121;19;129682;-42
2023/03/08 09:08:07;;;;;;;39.45;1.95;;;;;;;23.88;49.61;97755.88;7316284;19;129829;-41
2023/03/08 09:10:34;;;;;;;54.87;2.87;;;;;;;23.62;49.98;97740.84;7314382;19;129659;-38
2023/03/08 09:13:00;;;;;;;62.97;3.15;;;;;;;23.65;50.69;97748.31;7315806;19;129830;-42
2023/03/08 09:15:25;;;;;;;43.33;2.20;;;;;;;23.65;50.71;97744.91;7314365;19;129008;-43
2023/03/08 09:17:51;;;;;;;50.92;2.85;;;;;;;23.67;50.58;97737.66;7313518;19;129418;-41
2023/03/08 09:20:17;;;;;;;52.30;2.77;;;;;;;23.62;50.68;97732.19;7314233;19;129737;-43
2023/03/08 09:22:42;;;;;;;23.85;1.40;;;;;;;23.61;50.40;97723.50;7314573;19;129058;-41
2023/03/08 09:25:10;;;;;;;124.50;7.23;;;;;;;23.58;50.70;97718.66;7314999;19;129248;-42
2023/03/08 09:27:36;;;;;;;46.63;2.58;;;;;;;23.61;51.05;97717.44;7314481;19;129502;-42
2023/03/08 09:30:03;;;;;;;31.00;1.65;;;;;;;23.64;50.97;97707.34;7313276;19;129073;-40
2023/03/08 09:32:31;;;;;;;50.60;2.45;;;;;;;23.63;50.36;97703.13;7312743;19;129701;-43
2023/03/08 09:34:56;;;;;;;35.53;2.05;;;;;;;23.72;50.92;97715.03;7314160;19;129773;-40
2023/03/08 09:37:22;;;;;;;41.67;2.30;;;;;;;23.68;50.55;97703.34;7313255;19;130258;-39
2023/03/08 09:39:50;;;;;;;40.73;2.03;;;;;;;23.76;50.02;97702.34;7314075;19;128949;-41
2023/03/08 09:42:21;;;;;;;37.72;1.98;;;;;;;23.76;50.40;97703.16;7310985;19;129418;-42
2023/03/08 09:44:49;;;;;;;45.97;2.35;;;;;;;23.81;50.56;97692.88;7314939;19;129883;-40
2023/03/08 09:47:42;;;;;;;53.17;2.75;;;;;;;23.79;50.42;97692.25;7312958;19;129415;-42
2023/03/08 09:50:10;;;;;;;31.13;1.48;;;;;;;23.87;50.25;97691.25;7314264;19;129169;-44
2023/03/08 09:52:53;;;;;;;31.35;1.63;;;;;;;23.85;50.27;97678.31;7314856;19;128819;-43
2023/03/08 09:55:30;;;;;;;92.72;5.43;;;;;;;23.93;49.59;97675.50;7309619;19;129379;-40
2023/03/08 09:58:00;;;;;;;35.38;1.77;;;;;;;23.91;49.99;97674.91;7312229;19;129966;-41
2023/03/08 10:00:32;;;;;;;78.97;4.25;;;;;;;23.88;50.29;97662.16;7310750;19;129009;-41
2023/03/08 10:03:21;;;;;;;56.67;2.80;;;;;;;23.70;50.57;97669.03;7313394;19;129996;-40
2023/03/08 10:05:56;;;;;;;68.25;3.53;;;;;;;23.59;50.29;97661.72;7313654;19;130147;-43
2023/03/08 10:08:59;;;;;;;73.22;4.05;;;;;;;23.53;50.53;97657.28;7310890;19;129788;-40
2023/03/08 10:11:27;;;;;;;68.60;3.40;;;;;;;23.47;51.29;97653.63;7309791;19;129393;-41
2023/03/08 10:13:55;;;;;;;54.70;2.88;;;;;;;23.45;50.72;97655.66;7314169;19;129328;-40
2023/03/08 10:16:27;;;;;;;49.90;2.60;;;;;;;23.51;51.01;97652.25;7312499;19;129316;-41
2023/03/08 10:19:05;;;;;;;55.08;2.85;;;;;;;23.50;50.98;97652.44;7311067;19;129476;-43
2023/03/08 10:21:36;;;;;;;25.77;1.35;;;;;;;23.54;50.71;97654.47;7310826;19;129087;-39
2023/03/08 10:24:15;;;;;;;72.53;3.55;;;;;;;23.55;50.78;97650.81;7313771;19;129244;-44
2023/03/08 10:26:42;;;;;;;46.45;2.38;;;;;;;23.57;50.83;97642.78;7312159;19;129610;-39
2023/03/08 10:29:11;;;;;;;60.17;3.10;;;;;;;23.64;50.99;97639.16;7314066;19;130188;-41
2023/03/08 10:31:36;;;;;;;35.42;1.98;;;;;;;23.70;50.23;97643.59;7311225;19;129078;-38
2023/03/08 10:34:07;;;;;;;64.90;3.47;;;;;;;23.78;50.30;97640.78;7313286;19;129515;-39
2023/03/08 10:36:33;;;;;;;52.55;2.40;;;;;;;23.75;50.36;97635.91;7311448;19;129207;-41
2023/03/08 10:39:07;;;;;;;34.77;1.80;;;;;;;23.79;50.55;97639.78;7310851;19;129133;-43
2023/03/08 10:41:43;;;;;;;37.55;1.95;;;;;;;23.72;49.96;97641.56;7310586;19;128923;-41
2023/03/08 10:44:15;;;;;;;56.42;2.88;;;;;;;23.74;50.50;97626.44;7313263;19;129202;-39
2023/03/08 10:46:48;;;;;;;29.67;1.52;;;;;;;23.82;50.18;97621.00;7311697;19;129187;-38
2023/03/08 10:49:17;;;;;;;77.68;3.95;;;;;;;23.89;49.87;97629.69;7313245;19;129537;-41
2023/03/08 10:52:00;;;;;;;20.75;1.27;;;;;;;23.79;49.96;97610.91;7310732;19;129006;-38
2023/03/08 10:54:27;;;;;;;63.67;3.28;;;;;;;23.77;50.57;97617.34;7313921;19;128703;-43
2023/03/08 10:57:00;;;;;;;32.38;1.77;;;;;;;23.66;50.69;97620.56;7311391;19;129412;-41
2023/03/08 10:59:32;;;;;;;65.93;3.35;;;;;;;23.63;50.78;97611.31;7308465;19;129213;-43
2023/03/08 11:02:21;;;;;;;38.97;1.95;;;;;;;23.54;51.08;97602.00;7312754;19;129292;-42
2023/03/08 11:04:54;;;;;;;37.92;2.08;;;;;;;23.51;50.97;97597.16;7312495;19;129187;-38
2023/03/08 11:07:29;;;;;;;67.72;3.30;;;;;;;23.46;51.22;97599.56;7308511;19;129389;-42
2023/03/08 11:10:15;;;;;;;53.25;2.83;;;;;;;23.46;50.81;97575.97;7311209;19;130506;-41
2023/03/08 11:12:41;;;;;;;51.83;2.83;;;;;;;23.52;50.86;97569.13;7312781;19;129384;-42
2023/03/08 11:15:18;;;;;;;149.73;8.77;;;;;;;23.49;51.52;97562.44;7308059;19;129689;-41
2023/03/08 11:17:59;;;;;;;38.10;1.95;;;;;;;23.53;50.66;97566.31;7310443;19;129453;-43